Time;durP1;ratioP1;P1;durP2;ratioP2;P2;SDS_P1;SDS_P2;PMS_P1;PMS_P2;Temp;Humidity;BMP_temperature;BMP_pressure;BME280_temperature;BME280_humidity;BME280_pressure;Samples;Min_cycle;Max_cycle;Signal;HPM_P1;HPM_P2
2022/10/03 00:02:06;;;;;;;4.22;1.50;;;;;;;;;;5035564;28;20049;-70
2022/10/03 00:04:35;;;;;;;5.38;1.50;;;;;;;;;;5035663;28;20014;-73
2022/10/03 00:07:15;;;;;;;4.88;2.10;;;;;;;;;;5035583;28;20478;-72
2022/10/03 00:09:50;;;;;;;3.38;1.77;;;;;;;;;;5035590;28;20021;-73
2022/10/03 00:12:19;;;;;;;3.67;1.58;;;;;;;;;;5035112;28;20060;-72
2022/10/03 00:14:46;;;;;;;2.25;1.63;;;;;;;;;;5035111;28;20025;-73
2022/10/03 00:17:19;;;;;;;8.00;2.60;;;;;;;;;;5035245;28;20071;-72
2022/10/03 00:19:57;;;;;;;2.15;1.83;;;;;;;;;;5035323;28;20029;-73
2022/10/03 00:22:24;;;;;;;3.30;1.65;;;;;;;;;;5035240;28;20029;-72
2022/10/03 00:25:01;;;;;;;3.35;1.70;;;;;;;;;;5034793;28;20394;-72
2022/10/03 00:27:30;;;;;;;6.63;1.60;;;;;;;;;;5035100;28;20029;-72
2022/10/03 00:30:01;;;;;;;3.60;1.80;;;;;;;;;;5035077;28;20490;-72
2022/10/03 00:32:42;;;;;;;6.38;1.70;;;;;;;;;;5035119;28;20391;-72
2022/10/03 00:35:20;;;;;;;2.85;1.80;;;;;;;;;;5035081;28;20029;-73
2022/10/03 00:37:55;;;;;;;6.00;1.70;;;;;;;;;;5035103;28;20052;-72
2022/10/03 00:40:28;;;;;;;8.43;2.00;;;;;;;;;;5034614;28;20478;-72
2022/10/03 00:42:58;;;;;;;2.00;1.80;;;;;;;;;;5034870;28;20021;-72
2022/10/03 00:45:33;;;;;;;5.85;1.58;;;;;;;;;;5034660;28;20029;-72
2022/10/03 00:48:05;;;;;;;4.57;2.00;;;;;;;;;;5034670;28;20055;-72
2022/10/03 00:50:32;;;;;;;4.20;2.00;;;;;;;;;;5034637;28;20382;-72
2022/10/03 00:52:58;;;;;;;4.03;1.83;;;;;;;;;;5034596;28;20037;-71
2022/10/03 00:55:54;;;;;;;5.07;1.90;;;;;;;;;;5034477;28;20031;-71
2022/10/03 00:58:26;;;;;;;5.25;2.00;;;;;;;;;;5029385;28;20034;-72
2022/10/03 01:00:57;;;;;;;4.45;1.90;;;;;;;;;;5034600;28;20075;-71
2022/10/03 01:03:26;;;;;;;9.48;1.98;;;;;;;;;;5034005;28;20031;-72
2022/10/03 01:06:15;;;;;;;6.45;1.85;;;;;;;;;;5034323;28;20035;-72
2022/10/03 01:09:02;;;;;;;2.88;2.03;;;;;;;;;;5033974;28;20478;-71
2022/10/03 01:11:47;;;;;;;6.60;2.28;;;;;;;;;;5034018;28;20038;-72
2022/10/03 01:14:16;;;;;;;5.55;2.03;;;;;;;;;;5049462;28;20048;-72
2022/10/03 01:17:08;;;;;;;2.67;1.92;;;;;;;;;;5034081;28;20048;-72
2022/10/03 01:19:54;;;;;;;5.68;2.25;;;;;;;;;;5034134;28;20033;-72
2022/10/03 01:22:40;;;;;;;4.68;2.17;;;;;;;;;;5033952;28;20036;-72
2022/10/03 01:25:18;;;;;;;3.20;2.28;;;;;;;;;;5034326;28;20027;-72
2022/10/03 01:30:36;;;;;;;7.93;2.40;;;;;;;;;;5033802;28;20021;-72
2022/10/03 01:33:09;;;;;;;5.03;3.22;;;;;;;;;;5034073;28;20037;-72
2022/10/03 01:35:56;;;;;;;9.65;2.00;;;;;;;;;;5033879;28;20032;-72
2022/10/03 01:38:41;;;;;;;5.13;2.42;;;;;;;;;;5033510;28;20025;-72
2022/10/03 01:41:07;;;;;;;3.72;2.22;;;;;;;;;;5033997;28;20029;-72
2022/10/03 01:43:41;;;;;;;8.90;2.15;;;;;;;;;;5033591;28;20494;-72
2022/10/03 01:46:16;;;;;;;5.40;2.08;;;;;;;;;;5033410;28;20034;-73
2022/10/03 01:48:49;;;;;;;9.73;2.42;;;;;;;;;;5033497;28;20025;-72
2022/10/03 01:51:19;;;;;;;4.35;2.35;;;;;;;;;;5033115;28;20037;-71
2022/10/03 01:53:58;;;;;;;6.57;2.28;;;;;;;;;;5033770;28;20033;-72
2022/10/03 01:56:24;;;;;;;4.60;2.30;;;;;;;;;;5033484;28;20028;-72
2022/10/03 01:58:55;;;;;;;3.55;2.17;;;;;;;;;;5033416;28;20036;-73
2022/10/03 02:01:38;;;;;;;6.75;2.28;;;;;;;;;;5033219;28;20028;-72
2022/10/03 02:04:22;;;;;;;3.17;2.25;;;;;;;;;;5033333;28;20417;-72
2022/10/03 02:07:07;;;;;;;2.63;1.90;;;;;;;;;;5032824;28;20384;-72
2022/10/03 02:09:36;;;;;;;7.25;2.35;;;;;;;;;;5033056;28;20029;-72
2022/10/03 02:12:13;;;;;;;5.35;2.35;;;;;;;;;;5032826;28;20491;-72
2022/10/03 02:14:45;;;;;;;8.70;3.00;;;;;;;;;;5032689;28;20508;-72
2022/10/03 02:17:29;;;;;;;3.72;2.58;;;;;;;;;;5032601;28;20178;-72
2022/10/03 02:19:55;;;;;;;6.07;2.20;;;;;;;;;;5032838;28;20029;-72
2022/10/03 02:22:30;;;;;;;5.40;2.70;;;;;;;;;;5048172;28;20413;-72
2022/10/03 02:25:04;;;;;;;4.78;2.20;;;;;;;;;;5033054;28;20029;-72
2022/10/03 02:28:03;;;;;;;3.75;2.40;;;;;;;;;;5032744;28;20379;-73
2022/10/03 02:30:48;;;;;;;2.90;2.33;;;;;;;;;;5011083;28;20030;-72
2022/10/03 02:33:33;;;;;;;6.20;2.35;;;;;;;;;;5010810;28;20414;-72
2022/10/03 02:35:59;;;;;;;6.13;2.47;;;;;;;;;;5010284;28;20026;-72
2022/10/03 02:38:44;;;;;;;7.07;2.60;;;;;;;;;;5011027;28;20026;-72
2022/10/03 02:41:22;;;;;;;7.72;1.95;;;;;;;;;;5010539;28;20040;-72
2022/10/03 02:43:51;;;;;;;3.88;2.25;;;;;;;;;;5010644;28;20022;-72
2022/10/03 02:46:20;;;;;;;5.00;2.60;;;;;;;;;;4971791;28;20502;-72
2022/10/03 02:48:58;;;;;;;5.50;2.25;;;;;;;;;;4971351;28;20089;-73
2022/10/03 02:51:36;;;;;;;3.88;2.25;;;;;;;;;;4971224;28;20415;-72
2022/10/03 02:54:22;;;;;;;6.20;2.45;;;;;;;;;;4971570;28;20050;-72
2022/10/03 02:56:48;;;;;;;3.72;1.95;;;;;;;;;;4971875;28;20033;-72
2022/10/03 02:59:33;;;;;;;6.13;2.30;;;;;;;;;;4971432;28;20039;-72
2022/10/03 03:02:18;;;;;;;6.32;2.20;;;;;;;;;;4971679;28;20027;-72
2022/10/03 03:04:50;;;;;;;3.13;1.90;;;;;;;;;;4970958;28;20423;-72
2022/10/03 03:07:25;;;;;;;3.25;2.10;;;;;;;;;;5011936;28;20048;-72
2022/10/03 03:10:10;;;;;;;2.95;2.05;;;;;;;;;;5012340;28;20038;-72
2022/10/03 03:12:52;;;;;;;3.25;2.10;;;;;;;;;;5027857;28;20057;-72
2022/10/03 03:15:36;;;;;;;5.90;2.28;;;;;;;;;;5032427;28;20068;-72
2022/10/03 03:18:13;;;;;;;7.88;2.60;;;;;;;;;;5032031;28;20025;-72
2022/10/03 03:20:43;;;;;;;5.88;2.28;;;;;;;;;;5031653;28;20393;-72
2022/10/03 03:23:36;;;;;;;7.15;2.33;;;;;;;;;;5032281;28;20021;-72
2022/10/03 03:26:05;;;;;;;6.80;2.67;;;;;;;;;;5030977;28;20440;-72
2022/10/03 03:28:37;;;;;;;3.70;1.95;;;;;;;;;;5038139;28;20429;-72
2022/10/03 03:31:09;;;;;;;4.07;2.40;;;;;;;;;;5038544;28;20044;-72
2022/10/03 03:33:40;;;;;;;5.25;2.40;;;;;;;;;;5038270;28;20021;-72
2022/10/03 03:36:06;;;;;;;;;;;;;;;;;;5038885;28;20287;-72
2022/10/03 03:38:41;;;;;;;6.75;2.03;;;;;;;;;;5038424;28;20378;-72
2022/10/03 03:41:19;;;;;;;6.03;2.30;;;;;;;;;;5038313;28;20041;-72
2022/10/03 03:44:05;;;;;;;3.00;2.05;;;;;;;;;;5038374;28;20135;-71
2022/10/03 03:46:53;;;;;;;6.40;2.60;;;;;;;;;;5038434;28;20026;-72
2022/10/03 03:49:41;;;;;;;9.35;2.92;;;;;;;;;;5037836;28;20379;-72
2022/10/03 03:52:36;;;;;;;4.22;2.63;;;;;;;;;;5038216;28;20037;-72
2022/10/03 03:55:23;;;;;;;5.72;2.55;;;;;;;;;;5032848;28;20034;-72
2022/10/03 03:58:09;;;;;;;4.03;1.95;;;;;;;;;;5016284;28;20050;-72
2022/10/03 04:00:45;;;;;;;4.75;2.28;;;;;;;;;;5006508;28;20030;-72
2022/10/03 04:03:11;;;;;;;3.85;2.13;;;;;;;;;;5016243;28;20044;-72
2022/10/03 04:05:49;;;;;;;4.85;2.20;;;;;;;;;;5016571;28;20042;-72
2022/10/03 04:08:24;;;;;;;3.70;2.20;;;;;;;;;;5032487;28;20029;-72
2022/10/03 04:11:00;;;;;;;3.13;2.00;;;;;;;;;;5015064;28;20029;-72
2022/10/03 04:13:47;;;;;;;4.93;2.33;;;;;;;;;;4996464;28;20069;-72
2022/10/03 04:19:25;;;;;;;3.50;2.30;;;;;;;;;;4996395;28;20156;-72
2022/10/03 04:22:10;;;;;;;3.78;2.10;;;;;;;;;;4996580;28;20421;-72
2022/10/03 04:24:42;;;;;;;3.78;2.17;;;;;;;;;;4996549;28;20034;-72
2022/10/03 04:27:09;;;;;;;2.90;1.92;;;;;;;;;;4996445;28;20030;-71
2022/10/03 04:29:47;;;;;;;3.78;2.40;;;;;;;;;;4996348;28;20034;-72
2022/10/03 04:32:22;;;;;;;11.68;2.63;;;;;;;;;;5030631;28;20045;-70
2022/10/03 04:34:55;;;;;;;7.97;2.85;;;;;;;;;;5038276;28;20039;-72
2022/10/03 04:37:44;;;;;;;5.53;2.88;;;;;;;;;;5038212;28;20028;-71
2022/10/03 04:40:23;;;;;;;9.55;2.70;;;;;;;;;;5031207;28;20034;-72
2022/10/03 04:42:52;;;;;;;4.88;2.50;;;;;;;;;;5034774;28;20496;-72
2022/10/03 04:45:36;;;;;;;2.28;1.98;;;;;;;;;;5034293;28;20520;-71
2022/10/03 04:48:27;;;;;;;3.58;2.47;;;;;;;;;;5034620;28;20029;-72
2022/10/03 04:50:56;;;;;;;3.05;2.10;;;;;;;;;;5031682;28;20052;-72
2022/10/03 04:53:28;;;;;;;8.88;2.30;;;;;;;;;;5035065;28;20047;-72
2022/10/03 04:56:11;;;;;;;5.18;2.50;;;;;;;;;;5034522;28;20022;-72
2022/10/03 04:58:37;;;;;;;4.93;2.60;;;;;;;;;;5033511;28;20033;-72
2022/10/03 05:01:22;;;;;;;4.45;2.45;;;;;;;;;;5034134;28;20030;-72
2022/10/03 05:03:49;;;;;;;6.15;2.50;;;;;;;;;;5034747;28;20014;-71
2022/10/03 05:06:24;;;;;;;5.88;2.40;;;;;;;;;;5034605;28;20035;-72
2022/10/03 05:09:09;;;;;;;28.85;3.80;;;;;;;;;;5034124;28;20026;-72
2022/10/03 05:11:55;;;;;;;5.45;2.80;;;;;;;;;;5034063;28;20059;-73
2022/10/03 05:14:27;;;;;;;8.80;3.45;;;;;;;;;;5033933;28;20044;-72
2022/10/03 05:17:11;;;;;;;7.93;3.63;;;;;;;;;;5034323;28;20026;-72
2022/10/03 05:19:40;;;;;;;28.67;4.20;;;;;;;;;;5034514;28;20034;-72
2022/10/03 05:22:32;;;;;;;34.10;4.57;;;;;;;;;;5034028;28;20425;-72
2022/10/03 05:25:22;;;;;;;19.33;4.78;;;;;;;;;;5034145;28;20494;-72
2022/10/03 05:27:58;;;;;;;11.93;4.90;;;;;;;;;;5030904;28;20025;-72
2022/10/03 05:30:40;;;;;;;8.32;4.75;;;;;;;;;;5033654;28;20029;-73
2022/10/03 05:33:25;;;;;;;7.15;4.18;;;;;;;;;;5033791;28;20419;-73
2022/10/03 05:35:52;;;;;;;7.30;4.10;;;;;;;;;;5033936;28;20055;-72
2022/10/03 05:38:24;;;;;;;10.00;4.30;;;;;;;;;;5033914;28;20466;-72
2022/10/03 05:41:11;;;;;;;6.75;4.47;;;;;;;;;;5048995;28;20063;-72
2022/10/03 05:44:13;;;;;;;15.35;4.78;;;;;;;;;;5033584;28;20025;-72
2022/10/03 05:46:47;;;;;;;12.82;5.10;;;;;;;;;;4972596;28;20416;-72
2022/10/03 05:49:27;;;;;;;7.78;4.80;;;;;;;;;;4972589;28;20039;-72
2022/10/03 05:52:12;;;;;;;17.15;4.88;;;;;;;;;;4956343;28;20165;-73
2022/10/03 05:54:47;;;;;;;9.50;5.47;;;;;;;;;;4972477;28;20067;-72
2022/10/03 05:57:32;;;;;;;10.77;5.40;;;;;;;;;;4972452;28;20027;-72
2022/10/03 06:00:08;;;;;;;12.65;5.15;;;;;;;;;;4971853;28;20035;-72
2022/10/03 06:02:53;;;;;;;10.90;5.25;;;;;;;;;;4972268;28;20500;-72
2022/10/03 06:05:37;;;;;;;10.45;5.35;;;;;;;;;;4972201;28;20026;-72
2022/10/03 06:08:13;;;;;;;11.40;5.22;;;;;;;;;;4972064;28;20092;-72
2022/10/03 06:10:57;;;;;;;8.77;5.35;;;;;;;;;;4972089;28;20524;-72
2022/10/03 06:13:29;;;;;;;8.77;5.78;;;;;;;;;;4990961;28;20104;-72
2022/10/03 06:16:21;;;;;;;12.73;5.07;;;;;;;;;;4988821;28;20545;-72
2022/10/03 06:19:00;;;;;;;9.63;4.95;;;;;;;;;;4985596;28;20451;-72
2022/10/03 06:21:45;;;;;;;16.55;5.72;;;;;;;;;;5021338;28;20540;-72
2022/10/03 06:24:17;;;;;;;7.88;5.25;;;;;;;;;;5032662;28;20029;-72
2022/10/03 06:26:57;;;;;;;10.88;4.72;;;;;;;;;;5031789;28;20092;-72
2022/10/03 06:29:35;;;;;;;8.10;4.47;;;;;;;;;;5027024;28;20036;-73
2022/10/03 06:32:20;;;;;;;23.70;5.15;;;;;;;;;;5031034;28;20390;-73
2022/10/03 06:35:10;;;;;;;8.98;5.07;;;;;;;;;;5031810;28;20033;-72
2022/10/03 06:37:36;;;;;;;9.98;5.57;;;;;;;;;;5031409;28;20033;-71
2022/10/03 06:40:21;;;;;;;11.07;5.07;;;;;;;;;;5030622;28;20037;-72
2022/10/03 06:42:57;;;;;;;9.80;5.53;;;;;;;;;;5031812;28;20022;-72
2022/10/03 06:45:32;;;;;;;8.82;5.15;;;;;;;;;;5031930;28;20039;-70
2022/10/03 06:47:58;;;;;;;9.95;6.00;;;;;;;;;;5032284;28;20021;-72
2022/10/03 06:50:48;;;;;;;18.20;6.45;;;;;;;;;;5031010;28;20021;-72
2022/10/03 06:53:14;;;;;;;20.88;5.93;;;;;;;;;;5009667;28;20050;-72
2022/10/03 06:55:59;;;;;;;9.10;5.72;;;;;;;;;;5009816;28;20065;-72
2022/10/03 06:58:28;;;;;;;22.63;6.47;;;;;;;;;;4989056;28;20035;-72
2022/10/03 07:00:54;;;;;;;20.92;6.30;;;;;;;;;;4989771;28;20395;-72
2022/10/03 07:03:21;;;;;;;17.20;6.55;;;;;;;;;;4988994;28;20558;-71
2022/10/03 07:05:47;;;;;;;14.60;6.57;;;;;;;;;;4989924;28;20030;-72
2022/10/03 07:08:16;;;;;;;9.45;6.07;;;;;;;;;;4990065;28;20583;-72
2022/10/03 07:10:54;;;;;;;13.38;6.28;;;;;;;;;;4987308;28;20031;-72
2022/10/03 07:13:23;;;;;;;7.13;6.00;;;;;;;;;;4984143;28;20499;-72
2022/10/03 07:16:08;;;;;;;10.38;5.40;;;;;;;;;;4988955;28;20034;-72
2022/10/03 07:18:53;;;;;;;11.93;5.60;;;;;;;;;;4988463;28;20030;-72
2022/10/03 07:21:38;;;;;;;12.35;5.82;;;;;;;;;;4988777;28;20030;-71
2022/10/03 07:24:24;;;;;;;8.80;5.55;;;;;;;;;;4988094;28;20411;-72
2022/10/03 07:26:52;;;;;;;12.48;5.43;;;;;;;;;;4989831;28;20434;-72
2022/10/03 07:29:34;;;;;;;5.60;5.00;;;;;;;;;;4991748;28;20030;-72
2022/10/03 07:32:03;;;;;;;8.68;4.93;;;;;;;;;;5020665;28;20429;-72
2022/10/03 07:34:32;;;;;;;8.95;5.00;;;;;;;;;;5013760;28;20021;-73
2022/10/03 07:39:53;;;;;;;7.63;5.50;;;;;;;;;;5028813;28;20041;-72
2022/10/03 07:42:38;;;;;;;10.63;6.35;;;;;;;;;;5030924;28;20025;-73
2022/10/03 07:45:07;;;;;;;9.57;6.05;;;;;;;;;;5030200;28;20029;-72
2022/10/03 07:47:52;;;;;;;8.38;5.93;;;;;;;;;;5011050;28;20044;-72
2022/10/03 07:50:49;;;;;;;8.70;6.13;;;;;;;;;;5020920;28;20018;-72
2022/10/03 07:53:33;;;;;;;10.43;6.07;;;;;;;;;;5030711;28;20037;-72
2022/10/03 07:56:07;;;;;;;14.13;5.47;;;;;;;;;;5030392;28;20363;-72
2022/10/03 07:58:41;;;;;;;7.30;5.13;;;;;;;;;;5031066;28;20029;-71
2022/10/03 08:01:08;;;;;;;10.23;6.38;;;;;;;;;;5020330;28;20036;-72
2022/10/03 08:03:40;;;;;;;9.13;6.00;;;;;;;;;;5031154;28;20020;-72
2022/10/03 08:06:10;;;;;;;9.98;6.30;;;;;;;;;;5030680;28;20029;-73
2022/10/03 08:08:55;;;;;;;7.53;5.45;;;;;;;;;;5030545;28;20018;-72
2022/10/03 08:11:40;;;;;;;6.80;4.90;;;;;;;;;;5030713;28;20029;-72
2022/10/03 08:14:07;;;;;;;8.55;5.43;;;;;;;;;;5031951;28;20033;-73
2022/10/03 08:16:53;;;;;;;6.15;4.72;;;;;;;;;;5034502;28;20052;-73
2022/10/03 08:19:28;;;;;;;5.32;4.57;;;;;;;;;;5034072;28;20110;-72
2022/10/03 08:22:05;;;;;;;5.78;4.57;;;;;;;;;;5014884;28;20022;-72
2022/10/03 08:24:50;;;;;;;10.65;3.97;;;;;;;;;;5015068;28;20024;-72
2022/10/03 08:27:55;;;;;;;6.32;3.45;;;;;;;;;;5013141;28;20042;-72
2022/10/03 08:30:55;;;;;;;8.05;3.90;;;;;;;;;;4992272;28;20136;-71
2022/10/03 08:33:30;;;;;;;6.90;3.42;;;;;;;;;;5011720;28;20075;-72
2022/10/03 08:36:02;;;;;;;7.70;3.97;;;;;;;;;;5011258;28;20426;-72
2022/10/03 08:38:47;;;;;;;6.93;4.45;;;;;;;;;;5011674;28;20022;-72
2022/10/03 08:41:19;;;;;;;11.18;4.72;;;;;;;;;;5011038;28;20499;-73
2022/10/03 08:44:04;;;;;;;8.98;4.40;;;;;;;;;;5011248;28;20034;-72
2022/10/03 08:47:01;;;;;;;5.70;4.32;;;;;;;;;;4992245;28;20038;-72
2022/10/03 08:49:31;;;;;;;7.65;4.65;;;;;;;;;;4984299;28;20105;-73
2022/10/03 08:52:03;;;;;;;6.88;4.35;;;;;;;;;;5009907;28;20056;-71
2022/10/03 08:54:32;;;;;;;7.20;4.75;;;;;;;;;;5011081;28;20028;-70
2022/10/03 08:56:59;;;;;;;10.30;4.55;;;;;;;;;;5014509;28;20048;-71
2022/10/03 08:59:44;;;;;;;16.25;5.68;;;;;;;;;;5010958;28;20068;-70
2022/10/03 09:02:13;;;;;;;7.18;4.35;;;;;;;;;;5029930;28;20033;-69
2022/10/03 09:04:42;;;;;;;8.10;4.28;;;;;;;;;;5032837;28;20088;-71
2022/10/03 09:07:11;;;;;;;5.45;3.70;;;;;;;;;;5033011;28;20017;-71
2022/10/03 09:09:41;;;;;;;4.60;3.40;;;;;;;;;;5033520;28;20067;-71
2022/10/03 09:12:41;;;;;;;8.82;3.90;;;;;;;;;;5032824;28;20041;-71
2022/10/03 09:15:25;;;;;;;8.57;3.50;;;;;;;;;;5029155;28;20444;-71
2022/10/03 09:17:58;;;;;;;4.88;3.08;;;;;;;;;;5033564;28;20025;-71
2022/10/03 09:20:43;;;;;;;5.63;3.10;;;;;;;;;;5033292;28;20021;-70
2022/10/03 09:23:32;;;;;;;5.13;3.20;;;;;;;;;;5033490;28;20036;-72
2022/10/03 09:26:17;;;;;;;5.32;3.33;;;;;;;;;;5032499;28;20028;-70
2022/10/03 09:29:02;;;;;;;5.70;3.58;;;;;;;;;;5032832;28;20035;-71
2022/10/03 09:31:28;;;;;;;5.45;2.97;;;;;;;;;;5032490;28;20028;-71
2022/10/03 09:34:21;;;;;;;11.20;3.45;;;;;;;;;;5033037;28;20052;-71
2022/10/03 09:37:06;;;;;;;10.73;3.20;;;;;;;;;;5049997;28;20519;-70
2022/10/03 09:39:43;;;;;;;9.38;3.63;;;;;;;;;;5050468;28;20040;-69
2022/10/03 09:42:29;;;;;;;7.60;3.67;;;;;;;;;;5049663;28;20405;-70
2022/10/03 09:45:14;;;;;;;12.90;3.30;;;;;;;;;;5041767;28;20033;-70
2022/10/03 09:47:59;;;;;;;6.47;3.45;;;;;;;;;;5030188;28;20040;-71
2022/10/03 09:50:37;;;;;;;8.20;3.20;;;;;;;;;;5030023;28;20048;-70
2022/10/03 09:53:06;;;;;;;6.25;2.63;;;;;;;;;;5029663;28;20037;-71
2022/10/03 09:55:35;;;;;;;3.97;2.45;;;;;;;;;;5030317;28;20525;-71
2022/10/03 09:58:14;;;;;;;3.72;1.90;;;;;;;;;;5031931;28;20029;-71
2022/10/03 10:00:46;;;;;;;4.95;1.98;;;;;;;;;;5030162;28;20502;-71
2022/10/03 10:03:22;;;;;;;7.90;2.55;;;;;;;;;;5030004;28;20041;-71
2022/10/03 10:05:54;;;;;;;3.15;1.80;;;;;;;;;;5029971;28;20021;-69
2022/10/03 10:08:23;;;;;;;3.85;2.05;;;;;;;;;;5030272;28;20030;-71
2022/10/03 10:10:50;;;;;;;3.50;1.48;;;;;;;;;;5029974;28;20452;-71
2022/10/03 10:13:17;;;;;;;3.80;1.20;;;;;;;;;;5030905;28;20045;-71
2022/10/03 10:15:46;;;;;;;2.85;1.30;;;;;;;;;;5032598;28;20045;-71
2022/10/03 10:18:31;;;;;;;4.68;1.70;;;;;;;;;;5032174;28;20041;-71
2022/10/03 10:21:16;;;;;;;2.03;1.50;;;;;;;;;;5031977;28;20498;-71
2022/10/03 10:23:51;;;;;;;2.60;1.27;;;;;;;;;;5047532;28;20034;-71
2022/10/03 10:26:32;;;;;;;6.05;1.17;;;;;;;;;;5032301;28;20052;-71
2022/10/03 10:28:59;;;;;;;3.92;1.50;;;;;;;;;;5032018;28;20497;-71
2022/10/03 10:31:40;;;;;;;2.72;1.13;;;;;;;;;;5030539;28;20027;-71
2022/10/03 10:34:25;;;;;;;6.28;1.20;;;;;;;;;;5031495;28;20037;-71
2022/10/03 10:37:01;;;;;;;3.30;1.15;;;;;;;;;;5031105;28;20032;-70
2022/10/03 10:39:30;;;;;;;3.85;1.10;;;;;;;;;;5031452;28;20087;-71
2022/10/03 10:42:00;;;;;;;1.80;1.10;;;;;;;;;;5023744;28;20031;-71
2022/10/03 10:44:32;;;;;;;2.33;1.10;;;;;;;;;;5016412;28;20017;-71
2022/10/03 10:47:02;;;;;;;2.03;1.00;;;;;;;;;;5030854;28;20043;-71
2022/10/03 10:49:29;;;;;;;2.67;1.10;;;;;;;;;;5031079;28;20037;-71
2022/10/03 10:52:25;;;;;;;4.32;1.02;;;;;;;;;;5031262;28;20482;-71
2022/10/03 10:55:02;;;;;;;1.67;1.10;;;;;;;;;;5031821;28;20040;-71
2022/10/03 10:57:36;;;;;;;2.10;0.70;;;;;;;;;;5031956;28;20017;-71
2022/10/03 11:00:11;;;;;;;3.10;1.02;;;;;;;;;;5031269;28;20021;-71
2022/10/03 11:02:40;;;;;;;3.63;1.00;;;;;;;;;;5030703;28;20026;-71
2022/10/03 11:05:28;;;;;;;2.33;1.00;;;;;;;;;;5031349;28;20417;-69
2022/10/03 11:07:55;;;;;;;2.60;1.00;;;;;;;;;;5031498;28;20513;-71
2022/10/03 11:10:30;;;;;;;2.63;0.98;;;;;;;;;;5031690;28;20417;-71
2022/10/03 11:13:17;;;;;;;2.03;1.20;;;;;;;;;;5031034;28;20055;-71
2022/10/03 11:16:02;;;;;;;2.92;1.10;;;;;;;;;;5031405;28;20038;-71
2022/10/03 11:18:28;;;;;;;2.75;1.00;;;;;;;;;;5031358;28;20030;-71
2022/10/03 11:21:11;;;;;;;3.85;0.95;;;;;;;;;;5031935;28;20028;-71
2022/10/03 11:24:08;;;;;;;3.28;0.90;;;;;;;;;;5030572;28;20022;-71
2022/10/03 11:26:46;;;;;;;1.83;0.70;;;;;;;;;;5031591;28;20490;-71
2022/10/03 11:29:32;;;;;;;2.60;0.75;;;;;;;;;;5031514;28;20094;-71
2022/10/03 11:32:16;;;;;;;1.33;0.70;;;;;;;;;;5029012;28;20483;-71
2022/10/03 11:34:46;;;;;;;1.35;0.80;;;;;;;;;;5034929;28;20039;-70
2022/10/03 11:37:28;;;;;;;2.45;1.00;;;;;;;;;;5046891;28;20421;-70
2022/10/03 11:40:00;;;;;;;6.60;1.25;;;;;;;;;;5022145;28;20033;-70
2022/10/03 11:42:44;;;;;;;1.35;0.82;;;;;;;;;;5011843;28;20037;-71
2022/10/03 11:45:32;;;;;;;3.47;1.05;;;;;;;;;;5028744;28;20025;-70
2022/10/03 11:48:04;;;;;;;4.35;1.05;;;;;;;;;;5030210;28;20025;-71
2022/10/03 11:50:53;;;;;;;2.78;0.73;;;;;;;;;;5034056;28;20040;-70
2022/10/03 11:53:29;;;;;;;1.40;0.85;;;;;;;;;;5033049;28;20512;-71
2022/10/03 11:56:14;;;;;;;1.48;0.70;;;;;;;;;;5022946;28;20033;-71
2022/10/03 11:58:59;;;;;;;0.38;0.38;;;;;;;;;;5014860;28;20026;-72
2022/10/03 12:01:25;;;;;;;0.80;0.52;;;;;;;;;;5024748;28;20035;-71
2022/10/03 12:04:09;;;;;;;2.28;0.43;;;;;;;;;;5031704;28;20579;-71
2022/10/03 12:09:37;;;;;;;;;;;;;;;;;;5034845;28;20031;-71
2022/10/03 12:12:14;;;;;;;1.40;0.70;;;;;;;;;;5031676;28;20467;-72
2022/10/03 12:14:45;;;;;;;1.45;0.55;;;;;;;;;;5026520;28;20025;-71
2022/10/03 12:17:12;;;;;;;0.40;0.40;;;;;;;;;;5027272;28;20022;-72
2022/10/03 12:19:41;;;;;;;0.88;0.60;;;;;;;;;;5034955;28;20013;-72
2022/10/03 12:22:26;;;;;;;1.30;0.70;;;;;;;;;;5016815;28;20028;-72
2022/10/03 12:25:01;;;;;;;1.65;0.50;;;;;;;;;;5020795;28;20514;-71
2022/10/03 12:27:37;;;;;;;1.38;0.70;;;;;;;;;;5033911;28;20032;-72
2022/10/03 12:30:10;;;;;;;0.70;0.60;;;;;;;;;;5034258;28;20025;-72
2022/10/03 12:32:44;;;;;;;0.80;0.75;;;;;;;;;;5033585;28;20045;-71
2022/10/03 12:35:28;;;;;;;3.63;0.60;;;;;;;;;;5033316;28;20025;-72
2022/10/03 12:38:07;;;;;;;0.95;0.63;;;;;;;;;;5025418;28;20502;-71
2022/10/03 12:40:37;;;;;;;0.70;0.50;;;;;;;;;;5032538;28;20026;-72
2022/10/03 12:43:09;;;;;;;1.20;0.82;;;;;;;;;;5031609;28;20036;-72
2022/10/03 12:45:40;;;;;;;0.82;0.70;;;;;;;;;;5033017;28;20029;-72
2022/10/03 12:48:23;;;;;;;2.20;0.95;;;;;;;;;;5032532;28;20424;-72
2022/10/03 12:51:02;;;;;;;0.93;0.80;;;;;;;;;;5033561;28;20403;-72
2022/10/03 12:53:43;;;;;;;1.13;0.65;;;;;;;;;;5034118;28;20063;-72
2022/10/03 12:56:12;;;;;;;1.00;0.90;;;;;;;;;;5034267;28;20029;-72
2022/10/03 12:58:41;;;;;;;0.93;0.80;;;;;;;;;;5033351;28;20021;-72
2022/10/03 13:01:07;;;;;;;1.50;0.70;;;;;;;;;;5048554;28;20031;-72
2022/10/03 13:03:49;;;;;;;0.73;0.73;;;;;;;;;;5048782;28;20760;-72
2022/10/03 13:06:15;;;;;;;1.70;0.85;;;;;;;;;;5034350;28;20032;-72
2022/10/03 13:08:48;;;;;;;1.83;0.70;;;;;;;;;;5033501;28;20021;-72
2022/10/03 13:11:34;;;;;;;1.17;0.50;;;;;;;;;;5048637;28;20022;-72
2022/10/03 13:14:27;;;;;;;5.57;0.90;;;;;;;;;;5024357;28;20044;-72
2022/10/03 13:16:53;;;;;;;0.93;0.60;;;;;;;;;;5024297;28;20041;-72
2022/10/03 13:19:22;;;;;;;0.90;0.70;;;;;;;;;;5037280;28;20022;-72
2022/10/03 13:21:48;;;;;;;1.20;0.60;;;;;;;;;;5033234;28;20018;-72
2022/10/03 13:24:31;;;;;;;1.40;0.80;;;;;;;;;;5033724;28;20075;-72
2022/10/03 13:27:09;;;;;;;2.13;0.80;;;;;;;;;;5033734;28;20025;-72
2022/10/03 13:29:39;;;;;;;7.25;1.30;;;;;;;;;;5032915;28;20021;-72
2022/10/03 13:32:05;;;;;;;2.42;0.60;;;;;;;;;;5033122;28;20036;-71
2022/10/03 13:34:36;;;;;;;0.70;0.55;;;;;;;;;;5033151;28;20490;-71
2022/10/03 13:37:14;;;;;;;2.25;0.80;;;;;;;;;;5031830;28;20396;-72
2022/10/03 13:39:49;;;;;;;1.65;0.70;;;;;;;;;;5031865;28;20052;-72
2022/10/03 13:42:21;;;;;;;1.40;0.65;;;;;;;;;;5032496;28;20382;-71
2022/10/03 13:45:02;;;;;;;0.82;0.70;;;;;;;;;;5033279;28;20029;-72
2022/10/03 13:47:28;;;;;;;1.70;0.70;;;;;;;;;;5032915;28;20487;-72
2022/10/03 13:49:55;;;;;;;1.80;0.70;;;;;;;;;;5033063;28;20059;-72
2022/10/03 13:52:22;;;;;;;1.63;0.70;;;;;;;;;;5033017;28;20045;-71
2022/10/03 13:55:07;;;;;;;0.55;0.55;;;;;;;;;;5032129;28;20026;-70
2022/10/03 13:57:37;;;;;;;0.95;0.60;;;;;;;;;;5029466;28;20091;-72
2022/10/03 14:00:09;;;;;;;1.90;0.70;;;;;;;;;;5028778;28;20036;-71
2022/10/03 14:02:40;;;;;;;2.53;0.65;;;;;;;;;;5035221;28;20382;-72
2022/10/03 14:05:10;;;;;;;0.70;0.70;;;;;;;;;;5031799;28;20029;-72
2022/10/03 14:07:40;;;;;;;1.83;0.70;;;;;;;;;;5032913;28;20021;-72
2022/10/03 14:10:06;;;;;;;;;;;;;;;;;;5017842;28;20560;-72
2022/10/03 14:12:44;;;;;;;1.48;0.65;;;;;;;;;;5027305;28;20382;-72
2022/10/03 14:15:18;;;;;;;0.82;0.55;;;;;;;;;;5012966;28;20030;-72
2022/10/03 14:17:55;;;;;;;0.70;0.50;;;;;;;;;;5011558;28;20030;-71
2022/10/03 14:20:27;;;;;;;1.17;0.70;;;;;;;;;;5031291;28;20029;-72
2022/10/03 14:23:12;;;;;;;0.50;0.50;;;;;;;;;;5032139;28;20063;-71
2022/10/03 14:25:42;;;;;;;3.00;0.60;;;;;;;;;;5031828;28;20051;-72
2022/10/03 14:28:23;;;;;;;3.22;0.60;;;;;;;;;;5032014;28;20390;-72
2022/10/03 14:30:56;;;;;;;0.77;0.55;;;;;;;;;;5031855;28;20021;-72
2022/10/03 14:33:28;;;;;;;0.80;0.80;;;;;;;;;;5009384;28;20067;-72
2022/10/03 14:35:58;;;;;;;1.77;0.60;;;;;;;;;;5031861;28;20029;-72
2022/10/03 14:38:56;;;;;;;3.20;0.90;;;;;;;;;;5031868;28;20022;-72
2022/10/03 14:41:13;;;;;;;3.47;0.68;;;;;;;;;;5031239;28;20061;-72
2022/10/03 14:43:49;;;;;;;3.10;0.73;;;;;;;;;;5032286;28;20033;-72
2022/10/03 14:46:19;;;;;;;3.53;0.60;;;;;;;;;;5041653;28;20031;-72
2022/10/03 14:48:49;;;;;;;1.23;0.70;;;;;;;;;;5041877;28;20017;-72
2022/10/03 14:51:29;;;;;;;2.92;0.70;;;;;;;;;;5032053;28;20520;-72
2022/10/03 14:53:55;;;;;;;;;;;;;;;;;;5031498;28;20052;-70
2022/10/03 14:56:23;;;;;;;1.58;0.50;;;;;;;;;;5031506;28;19904;-71
2022/10/03 14:58:51;;;;;;;0.75;0.70;;;;;;;;;;5031442;28;20032;-72
2022/10/03 15:01:29;;;;;;;1.23;0.68;;;;;;;;;;5031557;28;20027;-72
2022/10/03 15:03:56;;;;;;;4.20;0.70;;;;;;;;;;5033579;28;20033;-71
2022/10/03 15:06:34;;;;;;;0.68;0.50;;;;;;;;;;5052152;28;20021;-71
2022/10/03 15:09:03;;;;;;;0.88;0.70;;;;;;;;;;5051994;28;20029;-71
2022/10/03 15:11:31;;;;;;;0.95;0.60;;;;;;;;;;5045252;28;20025;-71
2022/10/03 15:14:02;;;;;;;1.50;0.70;;;;;;;;;;5030869;28;20409;-72
2022/10/03 15:16:33;;;;;;;2.58;0.55;;;;;;;;;;5030703;28;20025;-71
2022/10/03 15:19:05;;;;;;;0.82;0.65;;;;;;;;;;5028830;28;20029;-72
2022/10/03 15:21:32;;;;;;;1.90;0.55;;;;;;;;;;5021749;28;20024;-70
2022/10/03 15:24:03;;;;;;;1.98;0.80;;;;;;;;;;5029937;28;20032;-71
2022/10/03 15:26:32;;;;;;;2.28;0.80;;;;;;;;;;5030195;28;20382;-71
2022/10/03 15:29:01;;;;;;;2.33;0.70;;;;;;;;;;5031963;28;20482;-71
2022/10/03 15:31:35;;;;;;;2.92;0.70;;;;;;;;;;5032550;28;20034;-71
2022/10/03 15:34:03;;;;;;;6.47;0.85;;;;;;;;;;5031938;28;20029;-71
2022/10/03 15:36:31;;;;;;;2.53;0.73;;;;;;;;;;5032040;28;20022;-71
2022/10/03 15:38:59;;;;;;;2.53;0.47;;;;;;;;;;5032044;28;20032;-71
2022/10/03 15:41:33;;;;;;;1.17;0.60;;;;;;;;;;5032424;28;20032;-71
2022/10/03 15:44:06;;;;;;;2.58;0.70;;;;;;;;;;5032313;28;20039;-71
2022/10/03 15:46:43;;;;;;;3.00;0.82;;;;;;;;;;5032049;28;20029;-71
2022/10/03 15:49:16;;;;;;;2.28;0.70;;;;;;;;;;5031945;28;20036;-71
2022/10/03 15:51:43;;;;;;;1.75;0.60;;;;;;;;;;5047220;28;20039;-71